This demonstration page uses our WeatherBlox Daily Observations layout. Learn more.

Left ArrowRight Arrow

Hourly Observations for August 15, 2020

Temp ( °F °C ) Dew Point ( °F °C ) Humidity (%) Winds ( mph kmh ) Pressure ( in mb ) Visibility ( mi km ) Precip ( " mm )
12:51 am 00:51 Clear 85 29.4 47 8.3 27 27 E 3 6 29.72 1007 10 16.0934 0 0
1:51 am 01:51 Clear 83 28.3 49 9.4 31 31 S 7 11 29.72 1006 10 16.0934 0 0
2:51 am 02:51 Clear 83 28.3 48 8.9 30 30 S 5 7 29.72 1006 10 16.0934 0 0
3:51 am 03:51 Clear 78 25.6 46 7.8 32 32 SSE 5 7 29.72 1007 10 16.0934 0 0
4:51 am 04:51 Clear 81 27.2 49 9.4 33 33 SSE 7 11 29.74 1007 10 16.0934 0 0
5:51 am 05:51 Sunny 78 25.6 46 7.8 32 32 SSE 8 13 29.78 1008 10 16.0934 0 0
6:51 am 06:51 Sunny 82 27.8 48 8.9 31 31 SE 3 6 29.8 1009 10 16.0934 0 0
7:51 am 07:51 Sunny 91 32.8 46 7.8 21 21 E 8 13 29.8 1009 10 16.0934 0 0
8:51 am 08:51 Sunny 95 35 47 8.3 19 19 ESE 8 13 29.8 1009 10 16.0934 0 0
9:51 am 09:51 Sunny 98 36.7 48 8.9 18 18 SSW 7 11 29.8 1009 10 16.0934 0 0
10:51 am 10:51 Sunny 101 38.3 50 10 18 18 WNW 7 11 29.79 1009 10 16.0934 0 0
11:51 am 11:51 Sunny 103 39.4 50 10 17 17 W 10 17 29.77 1008 10 16.0934 0 0
12:51 pm 12:51 Sunny 105 40.6 48 8.9 15 15 WSW 8 13 29.74 1007 10 16.0934 0 0
1:51 pm 13:51 Sunny 109 42.8 42 5.6 10 10 NW 9 15 29.7 1006 10 16.0934 0 0
2:51 pm 14:51 Sunny 109 42.8 39 3.9 9 9 N 12 19 29.67 1005 10 16.0934 0 0
3:51 pm 15:51 Sunny 111 43.9 37 2.8 8 8 N 13 20 29.65 1004 10 16.0934 0 0
4:51 pm 16:51 Sunny 110 43.3 36 2.2 8 8 N 18 30 29.63 1003 10 16.0934 0 0
5:51 pm 17:51 Sunny 105 40.6 37 2.8 10 10 NNW 15 24 29.64 1004 10 16.0934 0 0
6:51 pm 18:51 Sunny 97 36.1 51 10.6 21 21 W 14 22 29.72 1007 10 16.0934 0 0
6:58 pm 18:58 Sunny 96 35.6 51 10.6 22 22 W 8 13 29.63 1003 10 16.0934 0 0
7:51 pm 19:51 Clear 93 33.9 53 11.7 26 26 N 5 7 29.75 1007 10 16.0934 0 0
8:51 pm 20:51 Clear 94 34.4 50 10 22 22 E 3 6 29.75 1007 10 16.0934 0 0
9:51 pm 21:51 Clear 91 32.8 55 12.8 30 30 ESE 14 22 29.76 1008 10 16.0934 0 0
10:51 pm 22:51 Clear 90 32.2 54 12.2 29 29 E 10 17 29.78 1009 10 16.0934 0 0
11:51 pm 23:51 Clear 90 32.2 53 11.7 28 28 E 15 24 29.8 1009 10 16.0934 0 0

Powered by AerisWeather